3 – eServices

Baggage tracing
Cargo tracing
Weather
  • METAR

    EFMA 190920Z 09004KT 060V120 9000 NSC 01/M01 Q1027

    EFTU 190920Z AUTO 09004KT 6000 -SN BKN001/// BKN006/// OVC045/// M04/M04 Q1028

    EFHK 190920Z 18008KT 1000 R04R/P1500D R15/P1500D R22L/P1500D R04L/P1500U SN SCT004 BKN006 M00/M00 Q1029 TEMPO 2000 -SN

    ESSA 190920Z 06005KT CAVOK M00/M01 Q1026 R01L/29//62 R08/29//70 R01R/29//76 NOSIG

    ESSB 190920Z 09004KT 9999 BKN048 01/M01 Q1026 R12/19//64

  • TAF n/a

Flightradar24